createdAt,value
2023-05-06T00:01:33.719Z,90401.84
2023-05-06T00:04:00.284Z,90421.44
2023-05-06T00:06:27.409Z,90427.53
2023-05-06T00:08:54.586Z,90455.59
2023-05-06T00:11:21.018Z,90472.25
2023-05-06T00:13:47.367Z,90478.38
2023-05-06T00:16:14.157Z,90463.69
2023-05-06T00:18:41.434Z,90451.25
2023-05-06T00:21:07.870Z,90446.72
2023-05-06T00:23:34.505Z,90437.22
2023-05-06T00:26:00.835Z,90439.84
2023-05-06T00:28:27.258Z,90455.78
2023-05-06T00:30:53.976Z,90471.66
2023-05-06T00:33:20.326Z,90515.84
2023-05-06T00:35:46.918Z,90553.22
2023-05-06T00:38:15.197Z,90568.34
2023-05-06T00:40:41.565Z,90570.75
2023-05-06T00:43:08.405Z,90586.81
2023-05-06T00:45:35.249Z,90612.09
2023-05-06T00:48:02.897Z,90597.88
2023-05-06T00:50:30.832Z,90591.78
2023-05-06T00:52:58.850Z,90589.81
2023-05-06T00:55:26.477Z,90585.78
2023-05-06T00:57:53.044Z,90541.91
2023-05-06T01:00:20.400Z,90523.78
2023-05-06T01:02:48.485Z,90501.84
2023-05-06T01:05:21.414Z,90505.47
2023-05-06T01:08:06.419Z,90516.75
2023-05-06T01:10:47.906Z,90539.69
2023-05-06T01:13:29.293Z,90543.41
2023-05-06T01:16:00.693Z,90538.75
2023-05-06T01:18:31.846Z,90557.50
2023-05-06T01:20:59.790Z,90562.63
2023-05-06T01:23:26.112Z,90579.31
2023-05-06T01:25:52.916Z,90591.69
2023-05-06T01:28:19.315Z,90621.06
2023-05-06T01:31:04.114Z,90626.97
2023-05-06T01:33:50.912Z,90627.66
2023-05-06T01:36:30.889Z,90660.00
2023-05-06T01:39:00.240Z,90677.00
2023-05-06T01:41:27.783Z,90678.97
2023-05-06T01:43:55.308Z,90681.25
2023-05-06T01:46:22.397Z,90678.97
2023-05-06T01:48:55.542Z,90645.13
2023-05-06T01:51:22.369Z,90606.81
2023-05-06T01:53:48.732Z,90577.06
2023-05-06T01:56:16.626Z,90563.53
2023-05-06T01:58:42.980Z,90552.47
2023-05-06T02:01:09.295Z,90536.47
2023-05-06T02:03:37.742Z,90523.63
2023-05-06T02:06:04.709Z,90524.38
2023-05-06T02:08:31.129Z,90503.97
2023-05-06T02:10:58.217Z,90488.41
2023-05-06T02:13:24.567Z,90475.84
2023-05-06T02:15:54.518Z,90486.31
2023-05-06T02:18:21.235Z,90492.28
2023-05-06T02:20:47.640Z,90495.91
2023-05-06T02:23:13.984Z,90497.66
2023-05-06T02:25:40.897Z,90521.28
2023-05-06T02:28:07.207Z,90526.25
2023-05-06T02:30:34.482Z,90530.75
2023-05-06T02:33:01.341Z,90545.00
2023-05-06T02:35:27.718Z,90552.56
2023-05-06T02:37:54.086Z,90581.78
2023-05-06T02:40:20.792Z,90612.16
2023-05-06T02:42:47.555Z,90639.88
2023-05-06T02:45:13.967Z,90672.06
2023-05-06T02:47:40.508Z,90674.53
2023-05-06T02:50:07.472Z,90680.53
2023-05-06T02:52:34.508Z,90684.31
2023-05-06T02:55:01.875Z,90691.47
2023-05-06T02:57:28.247Z,90676.78
2023-05-06T02:59:54.597Z,90675.22
2023-05-06T03:02:21.529Z,90677.88
2023-05-06T03:04:47.894Z,90696.13
2023-05-06T03:07:14.236Z,90700.47
2023-05-06T03:09:41.113Z,90699.69
2023-05-06T03:12:07.444Z,90711.72
2023-05-06T03:14:33.832Z,90708.31
2023-05-06T03:17:00.709Z,90698.91
2023-05-06T03:19:27.074Z,90698.06
2023-05-06T03:21:53.433Z,90701.06
2023-05-06T03:24:20.383Z,90712.31
2023-05-06T03:26:46.783Z,90800.50
2023-05-06T03:29:13.112Z,90838.13
2023-05-06T03:31:39.921Z,90832.06
2023-05-06T03:34:06.320Z,90820.16
2023-05-06T03:36:33.033Z,90797.78
2023-05-06T03:38:59.648Z,90780.63
2023-05-06T03:41:26.109Z,90765.50
2023-05-06T03:43:54.039Z,90770.94
2023-05-06T03:46:20.735Z,90761.97
2023-05-06T03:48:47.067Z,90781.00
2023-05-06T03:51:13.591Z,90804.75
2023-05-06T03:53:40.276Z,90787.00
2023-05-06T03:56:07.055Z,90791.84
2023-05-06T03:58:33.467Z,90791.22
2023-05-06T04:01:01.221Z,90773.00
2023-05-06T04:03:28.095Z,90743.94
2023-05-06T04:05:54.529Z,90713.44
2023-05-06T04:08:21.239Z,90688.16
2023-05-06T04:10:47.577Z,90670.50
2023-05-06T04:13:15.930Z,90646.75
2023-05-06T04:15:42.514Z,90627.75
2023-05-06T04:18:08.889Z,90583.47
2023-05-06T04:20:36.369Z,90563.47
2023-05-06T04:23:02.849Z,90525.44
2023-05-06T04:25:29.763Z,90493.88
2023-05-06T04:27:56.470Z,90420.25
2023-05-06T04:30:22.825Z,90376.59
2023-05-06T04:32:49.199Z,90350.97
2023-05-06T04:35:16.575Z,90340.44
2023-05-06T04:37:43.481Z,90329.00
2023-05-06T04:40:12.102Z,90323.41
2023-05-06T04:42:39.527Z,90348.50
2023-05-06T04:45:06.397Z,90404.34
2023-05-06T04:47:33.825Z,90446.78
2023-05-06T04:50:00.212Z,90451.81
2023-05-06T04:52:27.230Z,90467.69
2023-05-06T04:54:53.621Z,90486.38
2023-05-06T04:57:19.955Z,90491.03
2023-05-06T04:59:46.904Z,90488.72
2023-05-06T05:02:13.767Z,90467.16
2023-05-06T05:04:40.735Z,90441.84
2023-05-06T05:07:07.410Z,90396.25
2023-05-06T05:09:35.745Z,90386.06
2023-05-06T05:12:02.877Z,90365.41
2023-05-06T05:14:29.217Z,90320.78
2023-05-06T05:16:56.406Z,90260.59
2023-05-06T05:19:22.811Z,90200.31
2023-05-06T05:21:49.756Z,90088.59
2023-05-06T05:24:16.527Z,90064.03
2023-05-06T05:26:42.872Z,90040.88
2023-05-06T05:29:09.269Z,89996.22
2023-05-06T05:31:35.936Z,89997.31
2023-05-06T05:34:02.320Z,89910.59
2023-05-06T05:36:28.916Z,89828.97
2023-05-06T05:38:55.641Z,89764.75
2023-05-06T05:41:21.941Z,89716.06
2023-05-06T05:43:48.302Z,89663.50
2023-05-06T05:46:15.609Z,89532.94
2023-05-06T05:48:42.326Z,89290.78
2023-05-06T05:51:08.764Z,89004.69
2023-05-06T05:53:35.078Z,88915.69
2023-05-06T05:56:01.785Z,88891.69
2023-05-06T05:58:28.214Z,89023.72
2023-05-06T06:00:54.548Z,89086.59
2023-05-06T06:03:21.604Z,89213.13
2023-05-06T06:05:49.266Z,89369.22
2023-05-06T06:08:17.321Z,89514.47
2023-05-06T06:10:44.040Z,89534.03
2023-05-06T06:13:10.523Z,89690.47
2023-05-06T06:15:37.287Z,89871.53
2023-05-06T06:18:03.918Z,89941.31
2023-05-06T06:20:30.657Z,90007.28
2023-05-06T06:22:57.314Z,90044.63
2023-05-06T06:25:23.666Z,90060.53
2023-05-06T06:27:50.455Z,90061.97
2023-05-06T06:30:16.787Z,90089.78
2023-05-06T06:32:51.673Z,90193.31
2023-05-06T06:35:19.809Z,90267.38
2023-05-06T06:37:46.783Z,90408.53
2023-05-06T06:40:13.985Z,90391.81
2023-05-06T06:42:40.427Z,90417.00
2023-05-06T06:45:08.642Z,90473.50
2023-05-06T06:47:35.862Z,90472.03
2023-05-06T06:50:02.229Z,90458.59
2023-05-06T06:52:29.071Z,90532.41
2023-05-06T06:54:55.561Z,90609.25
2023-05-06T06:57:21.918Z,90660.88
2023-05-06T07:02:38.137Z,90872.94
2023-05-06T07:05:04.833Z,91001.09
2023-05-06T07:07:31.225Z,91096.63
2023-05-06T07:09:58.541Z,91269.81
2023-05-06T07:12:26.661Z,91370.50
2023-05-06T07:14:53.004Z,91365.06
2023-05-06T07:17:19.798Z,91474.03
2023-05-06T07:19:46.214Z,91657.97
2023-05-06T07:22:12.532Z,91679.19
2023-05-06T07:24:39.354Z,91813.47
2023-05-06T07:27:05.782Z,91821.94
2023-05-06T07:29:32.224Z,91817.28
2023-05-06T07:31:58.963Z,91855.03
2023-05-06T07:34:25.468Z,91875.19
2023-05-06T07:36:52.315Z,91998.50
2023-05-06T07:39:18.654Z,91954.50
2023-05-06T07:41:46.004Z,91819.06
2023-05-06T07:44:12.683Z,91787.03
2023-05-06T07:46:39.138Z,92046.88
2023-05-06T07:49:05.608Z,92304.09
2023-05-06T07:51:33.372Z,92445.75
2023-05-06T07:53:59.769Z,92466.59
2023-05-06T07:56:26.120Z,92574.47
2023-05-06T07:58:52.846Z,92594.19
2023-05-06T08:01:19.215Z,92545.53
2023-05-06T08:03:45.701Z,92342.78
2023-05-06T08:06:12.777Z,92372.75
2023-05-06T08:08:39.103Z,92629.84
2023-05-06T08:11:05.430Z,92952.94
2023-05-06T08:13:33.705Z,93617.88
2023-05-06T08:16:02.230Z,93990.56
2023-05-06T08:18:29.201Z,94011.25
2023-05-06T08:20:55.837Z,93900.91
2023-05-06T08:23:22.234Z,93940.97
2023-05-06T08:25:49.126Z,94179.19
2023-05-06T08:28:15.607Z,94310.97
2023-05-06T08:30:42.391Z,94378.44
2023-05-06T08:33:09.303Z,94413.41
2023-05-06T08:35:35.737Z,94492.88
2023-05-06T08:38:02.174Z,94452.25
2023-05-06T08:40:32.884Z,94372.38
2023-05-06T08:42:59.966Z,94296.31
2023-05-06T08:45:29.302Z,94513.44
2023-05-06T08:47:56.576Z,94682.06
2023-05-06T08:50:24.093Z,94733.13
2023-05-06T08:52:50.785Z,94734.44
2023-05-06T08:55:19.742Z,94670.28
2023-05-06T08:57:46.864Z,94696.25
2023-05-06T09:00:14.685Z,94702.78
2023-05-06T09:02:43.413Z,94711.13
2023-05-06T09:05:11.383Z,94663.44
2023-05-06T09:07:38.038Z,94603.28
2023-05-06T09:10:12.813Z,94550.88
2023-05-06T09:12:39.559Z,94550.94
2023-05-06T09:15:06.584Z,94559.00
2023-05-06T09:17:33.621Z,94567.78
2023-05-06T09:20:00.622Z,94570.69
2023-05-06T09:22:30.367Z,94529.44
2023-05-06T09:24:58.366Z,94463.84
2023-05-06T09:30:14.454Z,94585.75
2023-05-06T09:32:41.750Z,94660.22
2023-05-06T09:35:10.118Z,94589.00
2023-05-06T09:37:37.288Z,94538.75
2023-05-06T09:40:03.904Z,94438.66
2023-05-06T09:42:30.376Z,94548.59
2023-05-06T09:45:01.357Z,94824.69
2023-05-06T09:47:33.984Z,94994.50
2023-05-06T09:50:04.611Z,95116.06
2023-05-06T09:52:31.497Z,95157.97
2023-05-06T09:54:58.234Z,95162.91
2023-05-06T09:57:25.099Z,95208.41
2023-05-06T09:59:54.537Z,95147.69
2023-05-06T10:02:23.165Z,95186.09
2023-05-06T10:04:51.514Z,95199.84
2023-05-06T10:07:22.562Z,95240.78
2023-05-06T10:09:51.524Z,95286.78
2023-05-06T10:12:19.837Z,95212.59
2023-05-06T10:14:46.242Z,95263.44
2023-05-06T10:17:14.608Z,95326.44
2023-05-06T10:19:45.495Z,95294.06
2023-05-06T10:22:30.275Z,95238.09
2023-05-06T10:25:13.078Z,95213.84
2023-05-06T10:27:44.235Z,95198.91
2023-05-06T10:30:13.935Z,95230.94
2023-05-06T10:32:43.036Z,95235.56
2023-05-06T10:35:19.707Z,95273.69
2023-05-06T10:37:48.957Z,95252.47
2023-05-06T10:40:15.728Z,95242.53
2023-05-06T10:42:42.530Z,95356.38
2023-05-06T10:45:10.761Z,95394.56
2023-05-06T10:47:56.332Z,95232.50
2023-05-06T10:50:26.931Z,95231.50
2023-05-06T10:52:55.565Z,95394.97
2023-05-06T10:55:34.847Z,95444.97
2023-05-06T10:58:12.571Z,95293.59
2023-05-06T11:00:39.667Z,94481.69
2023-05-06T11:03:08.303Z,94811.63
2023-05-06T11:05:48.385Z,94803.13
2023-05-06T11:08:16.053Z,94721.19
2023-05-06T11:10:42.379Z,94765.13
2023-05-06T11:13:23.009Z,94884.78
2023-05-06T11:15:51.768Z,94572.59
2023-05-06T11:18:24.668Z,94719.78
2023-05-06T11:21:10.966Z,94836.81
2023-05-06T11:23:43.648Z,94832.34
2023-05-06T11:26:11.258Z,94859.28
2023-05-06T11:28:38.870Z,94836.19
2023-05-06T11:31:06.573Z,94862.25
2023-05-06T11:33:36.656Z,94693.81
2023-05-06T11:36:04.746Z,94851.72
2023-05-06T11:38:45.437Z,95054.72
2023-05-06T11:41:12.820Z,95068.00
2023-05-06T11:43:39.800Z,95063.94
2023-05-06T11:46:06.635Z,95141.88
2023-05-06T11:48:32.987Z,95143.31
2023-05-06T11:50:59.938Z,95201.56
2023-05-06T11:53:26.968Z,95289.41
2023-05-06T11:55:54.057Z,95377.75
2023-05-06T11:58:24.489Z,95373.78
2023-05-06T12:00:56.310Z,95412.91
2023-05-06T12:03:24.665Z,95391.91
2023-05-06T12:05:51.893Z,95399.19
2023-05-06T12:08:28.470Z,95505.34
2023-05-06T12:10:59.141Z,95545.59
2023-05-06T12:13:26.596Z,96022.28
2023-05-06T12:15:55.558Z,96029.63
2023-05-06T12:18:23.605Z,96023.06
2023-05-06T12:20:50.068Z,96012.88
2023-05-06T12:23:17.455Z,96012.31
2023-05-06T12:25:49.725Z,95996.88
2023-05-06T12:28:21.361Z,95982.63
2023-05-06T12:30:47.871Z,95986.59
2023-05-06T12:33:14.462Z,96011.03
2023-05-06T12:35:41.593Z,96009.06
2023-05-06T12:38:15.541Z,95996.03
2023-05-06T12:40:43.592Z,95986.03
2023-05-06T12:43:10.754Z,96007.56
2023-05-06T12:45:40.778Z,96009.59
2023-05-06T12:48:07.725Z,96000.94
2023-05-06T12:50:34.080Z,95998.72
2023-05-06T12:53:01.139Z,96022.22
2023-05-06T12:55:27.734Z,96013.75
2023-05-06T12:57:56.077Z,95991.38
2023-05-06T13:00:24.224Z,95942.03
2023-05-06T13:02:51.036Z,95954.97
2023-05-06T13:05:17.689Z,95932.44
2023-05-06T13:07:44.104Z,95933.00
2023-05-06T13:10:11.840Z,95850.22
2023-05-06T13:12:38.608Z,95906.44
2023-05-06T13:15:05.629Z,95889.69
2023-05-06T13:17:32.456Z,95911.03
2023-05-06T13:19:58.863Z,95912.69
2023-05-06T13:22:25.254Z,95927.22
2023-05-06T13:24:51.783Z,95936.19
2023-05-06T13:27:18.143Z,95929.22
2023-05-06T13:29:44.468Z,95966.06
2023-05-06T13:32:11.406Z,95962.34
2023-05-06T13:34:37.741Z,95972.25
2023-05-06T13:37:04.066Z,95965.56
2023-05-06T13:39:31.218Z,95957.00
2023-05-06T13:41:57.543Z,95968.34
2023-05-06T13:44:24.500Z,95948.56
2023-05-06T13:46:51.426Z,95927.47
2023-05-06T13:49:18.409Z,95875.25
2023-05-06T13:51:44.776Z,95793.44
2023-05-06T13:54:11.529Z,95730.38
2023-05-06T13:56:37.927Z,95568.78
2023-05-06T13:59:04.295Z,95360.09
2023-05-06T14:01:31.331Z,95249.50
2023-05-06T14:03:57.699Z,95355.78
2023-05-06T14:06:24.295Z,95650.25
2023-05-06T14:08:50.827Z,95695.81
2023-05-06T14:11:17.180Z,95749.34
2023-05-06T14:13:43.521Z,95840.53
2023-05-06T14:16:10.122Z,95834.00
2023-05-06T14:18:36.598Z,95846.50
2023-05-06T14:21:03.595Z,95801.41
2023-05-06T14:23:30.308Z,95812.34
2023-05-06T14:25:56.785Z,95807.63
2023-05-06T14:28:23.740Z,95807.50
2023-05-06T14:30:51.536Z,95766.47
2023-05-06T14:33:17.888Z,95754.31
2023-05-06T14:35:45.956Z,95745.81
2023-05-06T14:38:12.730Z,95742.53
2023-05-06T14:40:39.090Z,95716.28
2023-05-06T14:43:07.141Z,95732.31
2023-05-06T14:45:34.159Z,95717.19
2023-05-06T14:48:00.775Z,95692.16
2023-05-06T14:50:27.193Z,95694.72
2023-05-06T14:52:53.917Z,95667.44
2023-05-06T14:55:20.369Z,95669.38
2023-05-06T14:57:46.793Z,95661.06
2023-05-06T15:00:15.167Z,95662.59
2023-05-06T15:02:41.941Z,95649.44
2023-05-06T15:05:10.093Z,95659.59
2023-05-06T15:07:36.597Z,95724.97
2023-05-06T15:10:04.052Z,95706.03
2023-05-06T15:12:30.797Z,95705.22
2023-05-06T15:14:57.207Z,95665.34
2023-05-06T15:17:23.632Z,95600.47
2023-05-06T15:19:50.399Z,95552.75
2023-05-06T15:22:17.235Z,95591.63
2023-05-06T15:24:45.138Z,95392.88
2023-05-06T15:27:11.500Z,95410.06
2023-05-06T15:29:38.993Z,95459.50
2023-05-06T15:32:06.046Z,95496.47
2023-05-06T15:34:32.817Z,95387.56
2023-05-06T15:37:01.524Z,95410.69
2023-05-06T15:39:28.241Z,95462.91
2023-05-06T15:41:54.945Z,95385.44
2023-05-06T15:44:21.419Z,95406.47
2023-05-06T15:46:47.791Z,95299.84
2023-05-06T15:49:45.529Z,95189.72
2023-05-06T15:52:01.470Z,95003.81
2023-05-06T15:54:29.021Z,94925.22
2023-05-06T15:56:56.291Z,94922.69
2023-05-06T15:59:22.915Z,94795.03
2023-05-06T16:04:19.529Z,94661.22
2023-05-06T16:06:46.065Z,94675.41
2023-05-06T16:09:12.638Z,94693.34
2023-05-06T16:11:39.530Z,94709.91
2023-05-06T16:14:05.926Z,94708.16
2023-05-06T16:16:32.389Z,94781.63
2023-05-06T16:18:59.156Z,94793.38
2023-05-06T16:21:26.270Z,94769.84
2023-05-06T16:23:52.591Z,94811.19
2023-05-06T16:26:18.926Z,94760.63
2023-05-06T16:28:45.972Z,94746.78
2023-05-06T16:31:12.446Z,94762.69
2023-05-06T16:33:38.843Z,94788.63
2023-05-06T16:36:06.141Z,94762.53
2023-05-06T16:38:32.489Z,94772.72
2023-05-06T16:40:58.807Z,94767.59
2023-05-06T16:43:25.220Z,94735.72
2023-05-06T16:45:51.568Z,94720.97
2023-05-06T16:48:18.068Z,94753.56
2023-05-06T16:50:44.956Z,94753.72
2023-05-06T16:53:11.520Z,94709.09
2023-05-06T16:55:37.920Z,94676.06
2023-05-06T16:58:04.395Z,94685.03
2023-05-06T17:00:32.064Z,94686.59
2023-05-06T17:02:58.574Z,94663.84
2023-05-06T17:05:25.185Z,94629.19
2023-05-06T17:07:52.577Z,94615.75
2023-05-06T17:10:19.007Z,94651.84
2023-05-06T17:12:45.379Z,94676.22
2023-05-06T17:15:12.329Z,94719.03
2023-05-06T17:17:39.712Z,94761.28
2023-05-06T17:20:07.074Z,94753.25
2023-05-06T17:22:33.981Z,94763.84
2023-05-06T17:25:00.376Z,94817.94
2023-05-06T17:27:26.729Z,94806.25
2023-05-06T17:29:53.505Z,94848.13
2023-05-06T17:32:20.015Z,94863.84
2023-05-06T17:34:46.867Z,94874.47
2023-05-06T17:37:13.210Z,94868.00
2023-05-06T17:39:39.796Z,94856.84
2023-05-06T17:42:06.537Z,94759.88
2023-05-06T17:44:35.133Z,94486.50
2023-05-06T17:47:01.786Z,94387.00
2023-05-06T17:49:28.821Z,94292.97
2023-05-06T17:51:55.992Z,94119.09
2023-05-06T17:54:22.842Z,94101.41
2023-05-06T17:56:50.943Z,94144.44
2023-05-06T17:59:19.115Z,94118.56
2023-05-06T18:01:45.748Z,93882.78
2023-05-06T18:04:12.953Z,93792.56
2023-05-06T18:06:41.659Z,93742.81
2023-05-06T18:09:08.727Z,93511.53
2023-05-06T18:11:35.249Z,92988.56
2023-05-06T18:14:01.715Z,92968.06
2023-05-06T18:16:28.444Z,92959.91
2023-05-06T18:18:54.872Z,92945.03
2023-05-06T18:21:21.206Z,92952.69
2023-05-06T18:23:48.551Z,92867.97
2023-05-06T18:26:27.923Z,92819.38
2023-05-06T18:29:05.897Z,92836.44
2023-05-06T18:31:32.903Z,92837.50
2023-05-06T18:33:59.251Z,92829.88
2023-05-06T18:36:27.231Z,92803.19
2023-05-06T18:38:53.636Z,92783.22
2023-05-06T18:41:20.030Z,92774.03
2023-05-06T18:43:46.666Z,92786.50
2023-05-06T18:46:13.018Z,92792.72
2023-05-06T18:48:39.354Z,92756.34
2023-05-06T18:51:13.554Z,92761.69
2023-05-06T18:53:40.491Z,92762.13
2023-05-06T18:56:07.704Z,92758.56
2023-05-06T18:58:38.764Z,92736.00
2023-05-06T19:01:06.553Z,92636.94
2023-05-06T19:03:34.810Z,92587.81
2023-05-06T19:06:04.509Z,92520.91
2023-05-06T19:08:31.988Z,92527.13
2023-05-06T19:10:59.413Z,92528.75
2023-05-06T19:13:26.261Z,92839.72
2023-05-06T19:15:53.131Z,92842.47
2023-05-06T19:18:19.574Z,93100.00
2023-05-06T19:20:46.345Z,93062.25
2023-05-06T19:23:13.023Z,93056.78
2023-05-06T19:25:39.535Z,93104.25
2023-05-06T19:28:06.501Z,93209.72
2023-05-06T19:30:35.004Z,93105.47
2023-05-06T19:33:02.476Z,93063.00
2023-05-06T19:35:28.989Z,93047.91
2023-05-06T19:37:56.010Z,93041.91
2023-05-06T19:40:23.133Z,93068.72
2023-05-06T19:42:49.463Z,93130.34
2023-05-06T19:45:17.508Z,93203.66
2023-05-06T19:47:45.700Z,93287.44
2023-05-06T19:50:13.018Z,93361.03
2023-05-06T19:52:39.830Z,93378.50
2023-05-06T19:55:07.102Z,93385.13
2023-05-06T19:57:33.796Z,93376.84
2023-05-06T20:00:04.933Z,93391.94
2023-05-06T20:02:31.916Z,93380.97
2023-05-06T20:04:59.022Z,93340.22
2023-05-06T20:07:25.550Z,93348.69
2023-05-06T20:09:55.270Z,92196.72
2023-05-06T20:12:22.923Z,92171.53
2023-05-06T20:14:49.636Z,92142.53
2023-05-06T20:17:16.520Z,92121.22
2023-05-06T20:19:45.023Z,92101.19
2023-05-06T20:22:11.763Z,92091.94
2023-05-06T20:24:38.132Z,92074.81
2023-05-06T20:27:05.040Z,92069.50
2023-05-06T20:29:31.396Z,92053.56
2023-05-06T20:31:57.824Z,92043.13
2023-05-06T20:34:24.844Z,92035.22
2023-05-06T20:36:54.120Z,92034.41
2023-05-06T20:39:21.869Z,92028.41
2023-05-06T20:41:48.746Z,92025.75
2023-05-06T20:44:15.156Z,92009.75
2023-05-06T20:46:41.474Z,91991.75
2023-05-06T20:49:08.382Z,91967.19
2023-05-06T20:51:34.800Z,91938.00
2023-05-06T20:54:01.316Z,91905.03
2023-05-06T20:56:28.931Z,91873.19
2023-05-06T20:58:55.710Z,91807.41
2023-05-06T21:01:23.948Z,91776.66
2023-05-06T21:03:50.824Z,91739.41
2023-05-06T21:06:18.378Z,91703.25
2023-05-06T21:08:46.146Z,91669.84
2023-05-06T21:11:13.326Z,91649.69
2023-05-06T21:13:40.635Z,91622.06
2023-05-06T21:16:07.030Z,91604.94
2023-05-06T21:18:33.705Z,91581.69
2023-05-06T21:21:00.184Z,91559.25
2023-05-06T21:23:26.612Z,91534.72
2023-05-06T21:25:53.531Z,91508.84
2023-05-06T21:28:19.883Z,91505.94
2023-05-06T21:30:46.290Z,91487.72
2023-05-06T21:33:12.991Z,91481.63
2023-05-06T21:35:39.375Z,91477.06
2023-05-06T21:38:05.865Z,91466.25
2023-05-06T21:40:32.737Z,91480.97
2023-05-06T21:42:59.102Z,91228.38
2023-05-06T21:45:26.365Z,91229.31
2023-05-06T21:47:53.383Z,91211.81
2023-05-06T21:50:20.190Z,91201.06
2023-05-06T21:52:46.517Z,91202.56
2023-05-06T21:55:13.632Z,91189.50
2023-05-06T21:57:40.402Z,91191.38
2023-05-06T22:00:12.116Z,91180.22
2023-05-06T22:02:40.151Z,91171.56
2023-05-06T22:05:07.870Z,91169.13
2023-05-06T22:07:34.580Z,91174.03
2023-05-06T22:10:01.791Z,91174.88
2023-05-06T22:12:28.203Z,91159.34
2023-05-06T22:14:54.508Z,91141.47
2023-05-06T22:17:22.626Z,91132.59
2023-05-06T22:19:49.621Z,91124.56
2023-05-06T22:22:16.406Z,91121.22
2023-05-06T22:24:43.191Z,91111.50
2023-05-06T22:27:09.572Z,91077.38
2023-05-06T22:29:36.013Z,91067.78
2023-05-06T22:32:03.626Z,91049.28
2023-05-06T22:34:30.369Z,91037.88
2023-05-06T22:36:58.354Z,91026.03
2023-05-06T22:39:27.006Z,91020.91
2023-05-06T22:41:53.383Z,91015.66
2023-05-06T22:44:19.790Z,91016.22
2023-05-06T22:46:46.683Z,91024.94
2023-05-06T22:49:13.772Z,91020.31
2023-05-06T22:51:40.552Z,91031.81
2023-05-06T22:54:06.936Z,91036.16
2023-05-06T22:56:33.289Z,91023.66
2023-05-06T22:59:00.280Z,91019.88
2023-05-06T23:01:31.630Z,91012.31
2023-05-06T23:03:59.295Z,91021.47
2023-05-06T23:06:28.250Z,91015.22
2023-05-06T23:08:54.600Z,91019.81
2023-05-06T23:11:21.153Z,91008.84
2023-05-06T23:13:48.118Z,92229.69
2023-05-06T23:16:15.280Z,92204.53
2023-05-06T23:18:41.826Z,92203.59
2023-05-06T23:21:08.932Z,92195.97
2023-05-06T23:23:35.314Z,92165.19
2023-05-06T23:26:01.685Z,92148.66
2023-05-06T23:28:28.442Z,92134.28
2023-05-06T23:30:54.838Z,92126.34
2023-05-06T23:33:21.252Z,92127.09
2023-05-06T23:35:48.112Z,92123.97
2023-05-06T23:38:14.444Z,92106.47
2023-05-06T23:40:40.778Z,92096.34
2023-05-06T23:43:10.180Z,92077.28
2023-05-06T23:45:36.922Z,92077.28
2023-05-06T23:48:03.812Z,92087.31
2023-05-06T23:50:30.809Z,92083.41
2023-05-06T23:52:57.125Z,92092.69
2023-05-06T23:55:26.033Z,92095.34
2023-05-06T23:57:52.751Z,92101.91
